sensor_id;sensor_type;location;lat;lon;timestamp;temperature;humidity
64843;DHT22;51310;52.198;5.422;2023-02-11T00:02:02;7.10;99.90
64843;DHT22;51310;52.198;5.422;2023-02-11T00:04:30;7.10;99.90
64843;DHT22;51310;52.198;5.422;2023-02-11T00:06:56;7.10;99.90
64843;DHT22;51310;52.198;5.422;2023-02-11T00:09:22;7.10;99.90
64843;DHT22;51310;52.198;5.422;2023-02-11T00:11:48;8.50;99.90
64843;DHT22;51310;52.198;5.422;2023-02-11T00:14:14;7.10;99.90
64843;DHT22;51310;52.198;5.422;2023-02-11T00:16:39;7.10;99.90
64843;DHT22;51310;52.198;5.422;2023-02-11T00:19:05;7.20;99.90
64843;DHT22;51310;52.198;5.422;2023-02-11T00:21:32;7.10;99.90
64843;DHT22;51310;52.198;5.422;2023-02-11T00:23:59;7.20;99.90
64843;DHT22;51310;52.198;5.422;2023-02-11T00:26:29;7.10;99.90
64843;DHT22;51310;52.198;5.422;2023-02-11T00:28:57;7.10;99.90
64843;DHT22;51310;52.198;5.422;2023-02-11T00:31:24;8.10;99.90
64843;DHT22;51310;52.198;5.422;2023-02-11T00:33:50;7.20;99.90
64843;DHT22;51310;52.198;5.422;2023-02-11T00:36:22;7.20;99.90
64843;DHT22;51310;52.198;5.422;2023-02-11T00:38:50;7.20;99.90
64843;DHT22;51310;52.198;5.422;2023-02-11T00:41:19;7.30;99.90
64843;DHT22;51310;52.198;5.422;2023-02-11T00:43:46;8.90;99.90
64843;DHT22;51310;52.198;5.422;2023-02-11T00:46:13;9.80;99.90
64843;DHT22;51310;52.198;5.422;2023-02-11T00:48:39;7.20;99.90
64843;DHT22;51310;52.198;5.422;2023-02-11T00:51:05;7.30;99.90
64843;DHT22;51310;52.198;5.422;2023-02-11T00:53:32;7.20;99.90
64843;DHT22;51310;52.198;5.422;2023-02-11T00:55:59;7.20;99.90
64843;DHT22;51310;52.198;5.422;2023-02-11T00:58:25;7.20;99.90
64843;DHT22;51310;52.198;5.422;2023-02-11T01:00:54;7.10;99.90
64843;DHT22;51310;52.198;5.422;2023-02-11T01:03:20;7.10;99.90
64843;DHT22;51310;52.198;5.422;2023-02-11T01:05:46;7.00;99.90
64843;DHT22;51310;52.198;5.422;2023-02-11T01:08:12;6.80;99.90
64843;DHT22;51310;52.198;5.422;2023-02-11T01:10:38;6.80;99.90
64843;DHT22;51310;52.198;5.422;2023-02-11T01:13:04;6.80;99.90
64843;DHT22;51310;52.198;5.422;2023-02-11T01:15:31;6.60;99.90
64843;DHT22;51310;52.198;5.422;2023-02-11T01:17:57;8.30;99.90
64843;DHT22;51310;52.198;5.422;2023-02-11T01:20:25;6.70;99.90
64843;DHT22;51310;52.198;5.422;2023-02-11T01:22:52;6.60;99.90
64843;DHT22;51310;52.198;5.422;2023-02-11T01:25:18;8.60;99.90
64843;DHT22;51310;52.198;5.422;2023-02-11T01:27:44;6.60;99.90
64843;DHT22;51310;52.198;5.422;2023-02-11T01:30:12;7.60;99.90
64843;DHT22;51310;52.198;5.422;2023-02-11T01:32:39;6.70;99.90
64843;DHT22;51310;52.198;5.422;2023-02-11T01:35:05;6.70;99.90
64843;DHT22;51310;52.198;5.422;2023-02-11T01:37:34;6.70;99.90
64843;DHT22;51310;52.198;5.422;2023-02-11T01:40:03;6.60;99.90
64843;DHT22;51310;52.198;5.422;2023-02-11T01:42:31;6.60;99.90
64843;DHT22;51310;52.198;5.422;2023-02-11T01:44:58;6.70;99.90
64843;DHT22;51310;52.198;5.422;2023-02-11T01:47:25;6.70;99.90
64843;DHT22;51310;52.198;5.422;2023-02-11T01:49:55;6.70;99.90
64843;DHT22;51310;52.198;5.422;2023-02-11T01:52:34;6.60;99.90
64843;DHT22;51310;52.198;5.422;2023-02-11T01:55:09;6.60;99.90
64843;DHT22;51310;52.198;5.422;2023-02-11T01:57:59;8.10;99.90
64843;DHT22;51310;52.198;5.422;2023-02-11T02:00:38;6.70;99.90
64843;DHT22;51310;52.198;5.422;2023-02-11T02:03:13;6.70;99.90
64843;DHT22;51310;52.198;5.422;2023-02-11T02:05:54;6.70;99.90
64843;DHT22;51310;52.198;5.422;2023-02-11T02:08:43;6.70;99.90
64843;DHT22;51310;52.198;5.422;2023-02-11T02:11:14;6.70;99.90
64843;DHT22;51310;52.198;5.422;2023-02-11T02:13:40;8.30;99.90
64843;DHT22;51310;52.198;5.422;2023-02-11T02:16:10;6.80;99.90
64843;DHT22;51310;52.198;5.422;2023-02-11T02:19:33;7.90;99.90
64843;DHT22;51310;52.198;5.422;2023-02-11T02:25:23;6.80;99.90
64843;DHT22;51310;52.198;5.422;2023-02-11T02:34:17;6.90;99.90
64843;DHT22;51310;52.198;5.422;2023-02-11T02:39:32;6.80;99.90
64843;DHT22;51310;52.198;5.422;2023-02-11T02:42:01;6.80;99.90
64843;DHT22;51310;52.198;5.422;2023-02-11T02:44:30;6.90;99.90
64843;DHT22;51310;52.198;5.422;2023-02-11T02:46:56;7.20;99.90
64843;DHT22;51310;52.198;5.422;2023-02-11T02:49:22;6.90;99.90
64843;DHT22;51310;52.198;5.422;2023-02-11T02:52:12;7.70;99.90
64843;DHT22;51310;52.198;5.422;2023-02-11T02:55:06;6.90;99.90
64843;DHT22;51310;52.198;5.422;2023-02-11T03:00:50;6.80;99.90
64843;DHT22;51310;52.198;5.422;2023-02-11T03:04:00;6.70;99.90
64843;DHT22;51310;52.198;5.422;2023-02-11T03:10:07;6.60;99.90
64843;DHT22;51310;52.198;5.422;2023-02-11T03:12:38;6.60;99.90
64843;DHT22;51310;52.198;5.422;2023-02-11T03:15:07;6.50;99.90
64843;DHT22;51310;52.198;5.422;2023-02-11T03:17:35;6.50;99.90
64843;DHT22;51310;52.198;5.422;2023-02-11T03:20:05;6.50;99.90
64843;DHT22;51310;52.198;5.422;2023-02-11T03:22:47;6.40;99.90
64843;DHT22;51310;52.198;5.422;2023-02-11T03:25:18;6.40;99.90
64843;DHT22;51310;52.198;5.422;2023-02-11T03:27:53;6.40;99.90
64843;DHT22;51310;52.198;5.422;2023-02-11T03:30:33;6.50;99.90
64843;DHT22;51310;52.198;5.422;2023-02-11T03:33:21;6.50;99.90
64843;DHT22;51310;52.198;5.422;2023-02-11T03:36:06;6.40;99.90
64843;DHT22;51310;52.198;5.422;2023-02-11T03:38:51;6.50;99.90
64843;DHT22;51310;52.198;5.422;2023-02-11T03:41:22;6.40;99.90
64843;DHT22;51310;52.198;5.422;2023-02-11T03:43:55;6.30;99.90
64843;DHT22;51310;52.198;5.422;2023-02-11T03:46:34;6.30;99.90
64843;DHT22;51310;52.198;5.422;2023-02-11T03:49:09;6.20;99.90
64843;DHT22;51310;52.198;5.422;2023-02-11T03:51:37;6.20;99.90
64843;DHT22;51310;52.198;5.422;2023-02-11T03:54:09;6.20;99.90
64843;DHT22;51310;52.198;5.422;2023-02-11T03:56:45;6.10;99.90
64843;DHT22;51310;52.198;5.422;2023-02-11T03:59:17;6.10;99.90
64843;DHT22;51310;52.198;5.422;2023-02-11T04:01:42;6.10;99.90
64843;DHT22;51310;52.198;5.422;2023-02-11T04:04:08;6.20;99.90
64843;DHT22;51310;52.198;5.422;2023-02-11T04:06:34;6.20;99.90
64843;DHT22;51310;52.198;5.422;2023-02-11T04:09:00;6.30;99.90
64843;DHT22;51310;52.198;5.422;2023-02-11T04:11:26;6.40;99.90
64843;DHT22;51310;52.198;5.422;2023-02-11T04:13:52;6.50;99.90
64843;DHT22;51310;52.198;5.422;2023-02-11T04:16:18;6.40;99.90
64843;DHT22;51310;52.198;5.422;2023-02-11T04:18:44;6.40;99.90
64843;DHT22;51310;52.198;5.422;2023-02-11T04:21:09;6.40;99.90
64843;DHT22;51310;52.198;5.422;2023-02-11T04:23:35;6.40;99.90
64843;DHT22;51310;52.198;5.422;2023-02-11T04:26:02;6.40;99.90
64843;DHT22;51310;52.198;5.422;2023-02-11T04:28:27;6.50;99.90
64843;DHT22;51310;52.198;5.422;2023-02-11T04:30:54;6.50;99.90
64843;DHT22;51310;52.198;5.422;2023-02-11T04:33:20;6.40;99.90
64843;DHT22;51310;52.198;5.422;2023-02-11T04:35:46;6.50;99.90
64843;DHT22;51310;52.198;5.422;2023-02-11T04:38:12;6.60;99.90
64843;DHT22;51310;52.198;5.422;2023-02-11T04:40:39;6.60;99.90
64843;DHT22;51310;52.198;5.422;2023-02-11T04:43:05;6.60;99.90
64843;DHT22;51310;52.198;5.422;2023-02-11T04:45:31;6.60;99.90
64843;DHT22;51310;52.198;5.422;2023-02-11T04:47:57;6.60;99.90
64843;DHT22;51310;52.198;5.422;2023-02-11T04:50:23;6.60;99.90
64843;DHT22;51310;52.198;5.422;2023-02-11T04:52:49;6.70;99.90
64843;DHT22;51310;52.198;5.422;2023-02-11T04:55:15;6.60;99.90
64843;DHT22;51310;52.198;5.422;2023-02-11T04:57:40;6.70;99.90
64843;DHT22;51310;52.198;5.422;2023-02-11T05:00:07;6.70;99.90
64843;DHT22;51310;52.198;5.422;2023-02-11T05:02:34;6.80;99.90
64843;DHT22;51310;52.198;5.422;2023-02-11T05:05:00;6.80;99.90
64843;DHT22;51310;52.198;5.422;2023-02-11T05:07:26;6.80;99.90
64843;DHT22;51310;52.198;5.422;2023-02-11T05:09:52;6.80;99.90
64843;DHT22;51310;52.198;5.422;2023-02-11T05:12:18;8.30;99.90
64843;DHT22;51310;52.198;5.422;2023-02-11T05:14:44;8.30;99.90
64843;DHT22;51310;52.198;5.422;2023-02-11T05:17:09;6.90;99.90
64843;DHT22;51310;52.198;5.422;2023-02-11T05:19:35;8.60;99.90
64843;DHT22;51310;52.198;5.422;2023-02-11T05:22:01;6.90;99.90
64843;DHT22;51310;52.198;5.422;2023-02-11T05:24:27;6.90;99.90
64843;DHT22;51310;52.198;5.422;2023-02-11T05:26:52;6.90;99.90
64843;DHT22;51310;52.198;5.422;2023-02-11T05:29:18;6.90;99.90
64843;DHT22;51310;52.198;5.422;2023-02-11T05:31:44;6.90;99.90
64843;DHT22;51310;52.198;5.422;2023-02-11T05:34:10;6.90;99.90
64843;DHT22;51310;52.198;5.422;2023-02-11T05:36:36;6.90;99.90
64843;DHT22;51310;52.198;5.422;2023-02-11T05:39:01;7.20;99.90
64843;DHT22;51310;52.198;5.422;2023-02-11T05:41:27;8.30;99.90
64843;DHT22;51310;52.198;5.422;2023-02-11T05:43:53;6.90;99.90
64843;DHT22;51310;52.198;5.422;2023-02-11T05:46:19;7.00;99.90
64843;DHT22;51310;52.198;5.422;2023-02-11T05:48:45;7.00;99.90
64843;DHT22;51310;52.198;5.422;2023-02-11T05:51:10;7.60;99.90
64843;DHT22;51310;52.198;5.422;2023-02-11T05:53:36;8.90;99.90
64843;DHT22;51310;52.198;5.422;2023-02-11T05:56:02;7.00;99.90
64843;DHT22;51310;52.198;5.422;2023-02-11T05:58:28;7.10;99.90
64843;DHT22;51310;52.198;5.422;2023-02-11T06:00:54;7.10;99.90
64843;DHT22;51310;52.198;5.422;2023-02-11T06:03:20;7.10;99.90
64843;DHT22;51310;52.198;5.422;2023-02-11T06:05:46;7.20;99.90
64843;DHT22;51310;52.198;5.422;2023-02-11T06:08:11;7.20;99.90
64843;DHT22;51310;52.198;5.422;2023-02-11T06:10:37;8.00;99.90
64843;DHT22;51310;52.198;5.422;2023-02-11T06:13:03;7.20;99.90
64843;DHT22;51310;52.198;5.422;2023-02-11T06:15:29;7.20;99.90
64843;DHT22;51310;52.198;5.422;2023-02-11T06:17:55;7.20;99.90
64843;DHT22;51310;52.198;5.422;2023-02-11T06:20:21;7.40;99.90
64843;DHT22;51310;52.198;5.422;2023-02-11T06:22:47;7.20;99.90
64843;DHT22;51310;52.198;5.422;2023-02-11T06:25:13;7.20;99.90
64843;DHT22;51310;52.198;5.422;2023-02-11T06:27:39;7.20;99.90
64843;DHT22;51310;52.198;5.422;2023-02-11T06:30:06;7.80;99.90
64843;DHT22;51310;52.198;5.422;2023-02-11T06:32:33;7.20;99.90
64843;DHT22;51310;52.198;5.422;2023-02-11T06:34:58;7.20;99.90
64843;DHT22;51310;52.198;5.422;2023-02-11T06:37:24;7.30;99.90
64843;DHT22;51310;52.198;5.422;2023-02-11T06:39:50;7.20;99.90
64843;DHT22;51310;52.198;5.422;2023-02-11T06:42:16;8.30;99.90
64843;DHT22;51310;52.198;5.422;2023-02-11T06:44:42;9.00;99.90
64843;DHT22;51310;52.198;5.422;2023-02-11T06:47:09;7.90;99.90
64843;DHT22;51310;52.198;5.422;2023-02-11T06:49:34;7.20;99.90
64843;DHT22;51310;52.198;5.422;2023-02-11T06:52:00;7.30;99.90
64843;DHT22;51310;52.198;5.422;2023-02-11T06:54:26;9.20;99.90
64843;DHT22;51310;52.198;5.422;2023-02-11T06:56:51;8.30;99.90
64843;DHT22;51310;52.198;5.422;2023-02-11T06:59:18;7.20;99.90
64843;DHT22;51310;52.198;5.422;2023-02-11T07:01:45;8.00;99.90
64843;DHT22;51310;52.198;5.422;2023-02-11T07:04:11;7.30;99.90
64843;DHT22;51310;52.198;5.422;2023-02-11T07:06:39;9.30;99.90
64843;DHT22;51310;52.198;5.422;2023-02-11T07:09:06;7.30;99.90
64843;DHT22;51310;52.198;5.422;2023-02-11T07:11:32;7.30;99.90
64843;DHT22;51310;52.198;5.422;2023-02-11T07:14:04;7.30;99.90
64843;DHT22;51310;52.198;5.422;2023-02-11T07:16:33;7.30;99.90
64843;DHT22;51310;52.198;5.422;2023-02-11T07:18:59;8.50;99.90
64843;DHT22;51310;52.198;5.422;2023-02-11T07:21:25;7.30;99.90
64843;DHT22;51310;52.198;5.422;2023-02-11T07:23:51;8.40;99.90
64843;DHT22;51310;52.198;5.422;2023-02-11T07:26:20;7.30;99.90
64843;DHT22;51310;52.198;5.422;2023-02-11T07:28:47;7.30;99.90
64843;DHT22;51310;52.198;5.422;2023-02-11T07:31:20;7.50;99.90
64843;DHT22;51310;52.198;5.422;2023-02-11T07:33:52;7.30;99.90
64843;DHT22;51310;52.198;5.422;2023-02-11T07:36:19;7.40;99.90
64843;DHT22;51310;52.198;5.422;2023-02-11T07:38:45;7.40;99.90
64843;DHT22;51310;52.198;5.422;2023-02-11T07:41:14;7.40;99.90
64843;DHT22;51310;52.198;5.422;2023-02-11T07:43:42;7.40;99.90
64843;DHT22;51310;52.198;5.422;2023-02-11T07:46:12;9.10;99.90
64843;DHT22;51310;52.198;5.422;2023-02-11T07:48:39;7.40;99.90
64843;DHT22;51310;52.198;5.422;2023-02-11T07:51:11;7.40;99.90
64843;DHT22;51310;52.198;5.422;2023-02-11T07:53:41;9.50;99.90
64843;DHT22;51310;52.198;5.422;2023-02-11T07:56:08;7.50;99.90
64843;DHT22;51310;52.198;5.422;2023-02-11T07:58:35;7.50;99.90
64843;DHT22;51310;52.198;5.422;2023-02-11T08:01:03;7.50;99.90
64843;DHT22;51310;52.198;5.422;2023-02-11T08:03:31;7.50;99.90
64843;DHT22;51310;52.198;5.422;2023-02-11T08:06:03;7.50;99.90
64843;DHT22;51310;52.198;5.422;2023-02-11T08:08:36;7.50;99.90
64843;DHT22;51310;52.198;5.422;2023-02-11T08:11:20;7.60;99.90
64843;DHT22;51310;52.198;5.422;2023-02-11T08:13:48;7.60;99.90
64843;DHT22;51310;52.198;5.422;2023-02-11T08:18:49;7.60;99.90
64843;DHT22;51310;52.198;5.422;2023-02-11T08:21:16;7.60;99.90
64843;DHT22;51310;52.198;5.422;2023-02-11T08:23:43;7.70;99.90
64843;DHT22;51310;52.198;5.422;2023-02-11T08:26:15;9.20;99.90
64843;DHT22;51310;52.198;5.422;2023-02-11T08:28:45;7.60;99.90
64843;DHT22;51310;52.198;5.422;2023-02-11T08:31:15;8.20;99.90
64843;DHT22;51310;52.198;5.422;2023-02-11T08:33:46;9.60;99.90
64843;DHT22;51310;52.198;5.422;2023-02-11T08:36:19;7.70;99.90
64843;DHT22;51310;52.198;5.422;2023-02-11T08:38:47;7.80;99.90
64843;DHT22;51310;52.198;5.422;2023-02-11T08:41:13;7.80;99.90
64843;DHT22;51310;52.198;5.422;2023-02-11T08:43:40;8.80;99.90
64843;DHT22;51310;52.198;5.422;2023-02-11T08:46:09;7.80;99.90
64843;DHT22;51310;52.198;5.422;2023-02-11T08:48:37;7.90;99.90
64843;DHT22;51310;52.198;5.422;2023-02-11T08:51:07;7.90;99.90
64843;DHT22;51310;52.198;5.422;2023-02-11T08:53:35;7.90;99.90
64843;DHT22;51310;52.198;5.422;2023-02-11T08:56:01;8.00;99.90
64843;DHT22;51310;52.198;5.422;2023-02-11T08:58:27;9.90;99.90
64843;DHT22;51310;52.198;5.422;2023-02-11T09:00:53;8.00;99.90
64843;DHT22;51310;52.198;5.422;2023-02-11T09:03:19;8.00;99.90
64843;DHT22;51310;52.198;5.422;2023-02-11T09:05:47;8.00;99.90
64843;DHT22;51310;52.198;5.422;2023-02-11T09:08:15;8.10;99.90
64843;DHT22;51310;52.198;5.422;2023-02-11T09:10:41;8.10;99.90
64843;DHT22;51310;52.198;5.422;2023-02-11T09:13:08;8.20;99.90
64843;DHT22;51310;52.198;5.422;2023-02-11T09:15:34;8.20;99.90
64843;DHT22;51310;52.198;5.422;2023-02-11T09:18:00;8.20;99.90
64843;DHT22;51310;52.198;5.422;2023-02-11T09:20:27;9.10;99.90
64843;DHT22;51310;52.198;5.422;2023-02-11T09:22:53;8.40;99.90
64843;DHT22;51310;52.198;5.422;2023-02-11T09:25:22;8.50;99.90
64843;DHT22;51310;52.198;5.422;2023-02-11T09:27:48;8.40;99.90
64843;DHT22;51310;52.198;5.422;2023-02-11T09:30:15;8.50;99.90
64843;DHT22;51310;52.198;5.422;2023-02-11T09:32:41;10.70;99.90
64843;DHT22;51310;52.198;5.422;2023-02-11T09:35:07;8.50;99.90
64843;DHT22;51310;52.198;5.422;2023-02-11T09:37:33;8.60;99.90
64843;DHT22;51310;52.198;5.422;2023-02-11T09:39:58;8.50;99.90
64843;DHT22;51310;52.198;5.422;2023-02-11T09:45:11;8.50;99.90
64843;DHT22;51310;52.198;5.422;2023-02-11T09:48:12;8.40;99.90
64843;DHT22;51310;52.198;5.422;2023-02-11T09:50:44;8.50;99.90
64843;DHT22;51310;52.198;5.422;2023-02-11T09:53:23;8.60;99.90
64843;DHT22;51310;52.198;5.422;2023-02-11T09:55:53;8.60;99.90
64843;DHT22;51310;52.198;5.422;2023-02-11T09:58:37;10.80;99.90
64843;DHT22;51310;52.198;5.422;2023-02-11T10:03:57;8.60;99.90
64843;DHT22;51310;52.198;5.422;2023-02-11T10:15:07;8.80;99.90
64843;DHT22;51310;52.198;5.422;2023-02-11T10:21:02;8.90;99.90
64843;DHT22;51310;52.198;5.422;2023-02-11T10:23:35;9.00;99.90
64843;DHT22;51310;52.198;5.422;2023-02-11T10:26:13;9.20;99.90
64843;DHT22;51310;52.198;5.422;2023-02-11T10:28:44;9.20;99.90
64843;DHT22;51310;52.198;5.422;2023-02-11T10:31:27;9.20;99.90
64843;DHT22;51310;52.198;5.422;2023-02-11T10:34:08;12.10;99.90
64843;DHT22;51310;52.198;5.422;2023-02-11T10:36:38;9.40;99.90
64843;DHT22;51310;52.198;5.422;2023-02-11T10:42:04;9.40;99.90
64843;DHT22;51310;52.198;5.422;2023-02-11T10:44:34;10.50;99.90
64843;DHT22;51310;52.198;5.422;2023-02-11T10:47:27;9.50;99.90
64843;DHT22;51310;52.198;5.422;2023-02-11T10:49:57;9.40;99.90
64843;DHT22;51310;52.198;5.422;2023-02-11T10:52:28;9.50;99.90
64843;DHT22;51310;52.198;5.422;2023-02-11T10:55:13;9.40;99.90
64843;DHT22;51310;52.198;5.422;2023-02-11T10:57:47;9.50;99.90
64843;DHT22;51310;52.198;5.422;2023-02-11T11:00:32;9.60;99.90
64843;DHT22;51310;52.198;5.422;2023-02-11T11:03:18;9.50;99.90
64843;DHT22;51310;52.198;5.422;2023-02-11T11:06:05;9.60;99.90
64843;DHT22;51310;52.198;5.422;2023-02-11T11:11:09;9.70;99.90
64843;DHT22;51310;52.198;5.422;2023-02-11T11:14:02;9.80;99.90
64843;DHT22;51310;52.198;5.422;2023-02-11T11:16:30;9.80;99.90
64843;DHT22;51310;52.198;5.422;2023-02-11T11:21:45;9.90;99.50
64843;DHT22;51310;52.198;5.422;2023-02-11T11:24:22;9.90;99.90
64843;DHT22;51310;52.198;5.422;2023-02-11T11:26:55;9.80;99.90
64843;DHT22;51310;52.198;5.422;2023-02-11T11:29:37;9.80;99.90
64843;DHT22;51310;52.198;5.422;2023-02-11T11:34:51;10.00;99.10
64843;DHT22;51310;52.198;5.422;2023-02-11T11:37:25;10.10;96.70
64843;DHT22;51310;52.198;5.422;2023-02-11T11:40:06;12.00;95.50
64843;DHT22;51310;52.198;5.422;2023-02-11T11:42:37;10.10;96.20
64843;DHT22;51310;52.198;5.422;2023-02-11T11:47:53;10.10;94.60
64843;DHT22;51310;52.198;5.422;2023-02-11T11:50:44;10.00;95.60
64843;DHT22;51310;52.198;5.422;2023-02-11T11:53:22;10.10;95.20
64843;DHT22;51310;52.198;5.422;2023-02-11T11:56:01;10.10;95.00
64843;DHT22;51310;52.198;5.422;2023-02-11T11:58:30;12.10;94.40
64843;DHT22;51310;52.198;5.422;2023-02-11T12:09:39;10.20;91.70
64843;DHT22;51310;52.198;5.422;2023-02-11T12:12:35;10.30;91.50
64843;DHT22;51310;52.198;5.422;2023-02-11T12:18:35;10.40;91.80
64843;DHT22;51310;52.198;5.422;2023-02-11T12:28:04;10.60;86.50
64843;DHT22;51310;52.198;5.422;2023-02-11T12:30:51;10.60;85.10
64843;DHT22;51310;52.198;5.422;2023-02-11T12:51:28;11.00;82.00
64843;DHT22;51310;52.198;5.422;2023-02-11T12:57:02;10.90;78.10
64843;DHT22;51310;52.198;5.422;2023-02-11T12:59:53;10.90;78.20
64843;DHT22;51310;52.198;5.422;2023-02-11T13:05:32;10.90;77.90
64843;DHT22;51310;52.198;5.422;2023-02-11T13:08:14;11.10;77.40
64843;DHT22;51310;52.198;5.422;2023-02-11T13:10:51;11.20;73.30
64843;DHT22;51310;52.198;5.422;2023-02-11T13:13:27;11.10;73.10
64843;DHT22;51310;52.198;5.422;2023-02-11T13:18:56;11.10;74.50
64843;DHT22;51310;52.198;5.422;2023-02-11T13:21:52;11.10;73.80
64843;DHT22;51310;52.198;5.422;2023-02-11T13:24:56;11.10;73.40
64843;DHT22;51310;52.198;5.422;2023-02-11T13:27:53;13.00;72.70
64843;DHT22;51310;52.198;5.422;2023-02-11T13:38:27;11.00;71.20
64843;DHT22;51310;52.198;5.422;2023-02-11T13:44:02;10.90;75.30
64843;DHT22;51310;52.198;5.422;2023-02-11T13:47:04;11.80;75.50
64843;DHT22;51310;52.198;5.422;2023-02-11T13:49:40;10.70;76.00
64843;DHT22;51310;52.198;5.422;2023-02-11T13:52:34;10.60;76.40
64843;DHT22;51310;52.198;5.422;2023-02-11T13:55:22;10.50;78.60
64843;DHT22;51310;52.198;5.422;2023-02-11T14:14:26;11.00;72.50
64843;DHT22;51310;52.198;5.422;2023-02-11T14:22:13;11.20;69.30
64843;DHT22;51310;52.198;5.422;2023-02-11T14:27:36;11.10;70.30
64843;DHT22;51310;52.198;5.422;2023-02-11T14:32:45;10.80;71.10
64843;DHT22;51310;52.198;5.422;2023-02-11T14:38:30;10.70;73.30
64843;DHT22;51310;52.198;5.422;2023-02-11T14:41:01;10.80;72.90
64843;DHT22;51310;52.198;5.422;2023-02-11T14:43:48;10.80;73.90
64843;DHT22;51310;52.198;5.422;2023-02-11T14:46:18;10.80;72.70
64843;DHT22;51310;52.198;5.422;2023-02-11T14:48:50;12.50;73.30
64843;DHT22;51310;52.198;5.422;2023-02-11T14:51:24;10.80;72.30
64843;DHT22;51310;52.198;5.422;2023-02-11T14:54:18;10.70;72.80
64843;DHT22;51310;52.198;5.422;2023-02-11T14:59:37;10.70;73.70
64843;DHT22;51310;52.198;5.422;2023-02-11T15:02:22;10.80;74.30
64843;DHT22;51310;52.198;5.422;2023-02-11T15:04:50;10.80;73.80
64843;DHT22;51310;52.198;5.422;2023-02-11T15:07:17;10.90;76.00
64843;DHT22;51310;52.198;5.422;2023-02-11T15:09:44;10.90;72.10
64843;DHT22;51310;52.198;5.422;2023-02-11T15:12:22;10.90;72.20
64843;DHT22;51310;52.198;5.422;2023-02-11T15:14:53;10.80;72.50
64843;DHT22;51310;52.198;5.422;2023-02-11T15:17:27;10.80;73.50
64843;DHT22;51310;52.198;5.422;2023-02-11T15:19:59;10.70;75.00
64843;DHT22;51310;52.198;5.422;2023-02-11T15:22:31;10.70;74.00
64843;DHT22;51310;52.198;5.422;2023-02-11T15:25:15;10.60;76.20
64843;DHT22;51310;52.198;5.422;2023-02-11T15:27:46;10.60;76.00
64843;DHT22;51310;52.198;5.422;2023-02-11T15:30:34;10.60;76.10
64843;DHT22;51310;52.198;5.422;2023-02-11T15:33:01;10.60;76.20
64843;DHT22;51310;52.198;5.422;2023-02-11T15:35:33;10.60;76.00
64843;DHT22;51310;52.198;5.422;2023-02-11T15:38:03;12.00;76.80
64843;DHT22;51310;52.198;5.422;2023-02-11T15:40:32;10.50;78.10
64843;DHT22;51310;52.198;5.422;2023-02-11T15:43:06;10.50;79.00
64843;DHT22;51310;52.198;5.422;2023-02-11T15:48:34;10.40;80.90
64843;DHT22;51310;52.198;5.422;2023-02-11T15:51:23;10.30;80.90
64843;DHT22;51310;52.198;5.422;2023-02-11T15:53:58;10.30;82.50
64843;DHT22;51310;52.198;5.422;2023-02-11T15:56:37;10.20;83.50
64843;DHT22;51310;52.198;5.422;2023-02-11T15:59:14;10.10;84.80
64843;DHT22;51310;52.198;5.422;2023-02-11T16:01:41;10.00;86.60
64843;DHT22;51310;52.198;5.422;2023-02-11T16:04:16;10.00;86.90
64843;DHT22;51310;52.198;5.422;2023-02-11T16:06:46;11.90;88.80
64843;DHT22;51310;52.198;5.422;2023-02-11T16:14:30;10.30;90.00
64843;DHT22;51310;52.198;5.422;2023-02-11T16:17:01;9.90;90.00
64843;DHT22;51310;52.198;5.422;2023-02-11T16:19:48;9.90;90.00
64843;DHT22;51310;52.198;5.422;2023-02-11T16:22:18;9.90;90.40
64843;DHT22;51310;52.198;5.422;2023-02-11T16:24:48;10.00;88.00
64843;DHT22;51310;52.198;5.422;2023-02-11T16:27:38;10.00;89.30
64843;DHT22;51310;52.198;5.422;2023-02-11T16:30:07;10.00;88.20
64843;DHT22;51310;52.198;5.422;2023-02-11T16:33:03;9.90;89.70
64843;DHT22;51310;52.198;5.422;2023-02-11T16:35:30;10.00;88.00
64843;DHT22;51310;52.198;5.422;2023-02-11T16:37:56;9.90;88.10
64843;DHT22;51310;52.198;5.422;2023-02-11T16:40:22;9.80;89.10
64843;DHT22;51310;52.198;5.422;2023-02-11T16:42:48;11.40;90.50
64843;DHT22;51310;52.198;5.422;2023-02-11T16:45:15;9.80;90.00
64843;DHT22;51310;52.198;5.422;2023-02-11T16:47:42;10.00;90.10
64843;DHT22;51310;52.198;5.422;2023-02-11T16:50:09;10.40;90.70
64843;DHT22;51310;52.198;5.422;2023-02-11T16:52:43;9.80;91.20
64843;DHT22;51310;52.198;5.422;2023-02-11T16:55:11;9.70;92.00
64843;DHT22;51310;52.198;5.422;2023-02-11T16:57:37;11.80;91.50
64843;DHT22;51310;52.198;5.422;2023-02-11T17:00:04;11.70;91.00
64843;DHT22;51310;52.198;5.422;2023-02-11T17:02:33;9.70;90.80
64843;DHT22;51310;52.198;5.422;2023-02-11T17:05:03;9.60;91.40
64843;DHT22;51310;52.198;5.422;2023-02-11T17:07:31;9.60;92.10
64843;DHT22;51310;52.198;5.422;2023-02-11T17:09:57;9.50;92.60
64843;DHT22;51310;52.198;5.422;2023-02-11T17:12:22;11.10;92.30
64843;DHT22;51310;52.198;5.422;2023-02-11T17:14:52;9.40;93.20
64843;DHT22;51310;52.198;5.422;2023-02-11T17:17:18;9.40;93.30
64843;DHT22;51310;52.198;5.422;2023-02-11T17:19:46;9.50;94.30
64843;DHT22;51310;52.198;5.422;2023-02-11T17:22:12;9.30;94.40
64843;DHT22;51310;52.198;5.422;2023-02-11T17:24:37;9.30;94.90
64843;DHT22;51310;52.198;5.422;2023-02-11T17:27:03;9.40;93.80
64843;DHT22;51310;52.198;5.422;2023-02-11T17:29:29;9.40;93.30
64843;DHT22;51310;52.198;5.422;2023-02-11T17:31:55;9.40;93.70
64843;DHT22;51310;52.198;5.422;2023-02-11T17:34:21;10.30;93.40
64843;DHT22;51310;52.198;5.422;2023-02-11T17:36:47;9.50;93.20
64843;DHT22;51310;52.198;5.422;2023-02-11T17:39:13;9.30;92.60
64843;DHT22;51310;52.198;5.422;2023-02-11T17:41:39;9.30;93.80
64843;DHT22;51310;52.198;5.422;2023-02-11T17:44:06;9.30;93.90
64843;DHT22;51310;52.198;5.422;2023-02-11T17:46:34;9.20;93.80
64843;DHT22;51310;52.198;5.422;2023-02-11T17:49:01;10.00;94.90
64843;DHT22;51310;52.198;5.422;2023-02-11T17:51:31;9.10;95.50
64843;DHT22;51310;52.198;5.422;2023-02-11T17:54:00;9.10;95.00
64843;DHT22;51310;52.198;5.422;2023-02-11T17:56:32;9.10;95.60
64843;DHT22;51310;52.198;5.422;2023-02-11T17:59:00;10.90;95.50
64843;DHT22;51310;52.198;5.422;2023-02-11T18:01:31;9.10;95.30
64843;DHT22;51310;52.198;5.422;2023-02-11T18:03:58;9.10;95.90
64843;DHT22;51310;52.198;5.422;2023-02-11T18:06:23;9.00;96.50
64843;DHT22;51310;52.198;5.422;2023-02-11T18:08:49;9.00;97.00
64843;DHT22;51310;52.198;5.422;2023-02-11T18:11:16;8.90;96.90
64843;DHT22;51310;52.198;5.422;2023-02-11T18:13:43;9.00;96.60
64843;DHT22;51310;52.198;5.422;2023-02-11T18:16:09;10.10;97.90
64843;DHT22;51310;52.198;5.422;2023-02-11T18:18:41;9.00;97.10
64843;DHT22;51310;52.198;5.422;2023-02-11T18:21:07;9.00;96.40
64843;DHT22;51310;52.198;5.422;2023-02-11T18:23:34;9.00;96.30
64843;DHT22;51310;52.198;5.422;2023-02-11T18:26:00;9.00;96.50
64843;DHT22;51310;52.198;5.422;2023-02-11T18:28:27;9.00;97.50
64843;DHT22;51310;52.198;5.422;2023-02-11T18:30:57;9.00;96.00
64843;DHT22;51310;52.198;5.422;2023-02-11T18:33:25;9.00;96.50
64843;DHT22;51310;52.198;5.422;2023-02-11T18:35:51;9.60;97.40
64843;DHT22;51310;52.198;5.422;2023-02-11T18:38:17;9.00;96.10